Time;durP1;ratioP1;P1;durP2;ratioP2;P2;SDS_P1;SDS_P2;PMS_P1;PMS_P2;Temp;Humidity;BMP_temperature;BMP_pressure;BME280_temperature;BME280_humidity;BME280_pressure;Samples;Min_cycle;Max_cycle;Signal;HPM_P1;HPM_P2
2023/05/01 00:00:32;;;;;;;7.57;4.43;;;12.50;99.90;;;;;;4988716;28;20034;-81
2023/05/01 00:02:58;;;;;;;6.65;4.88;;;12.50;99.90;;;;;;4973537;28;20022;-82
2023/05/01 00:05:24;;;;;;;7.55;5.25;;;12.50;99.90;;;;;;4988731;28;20038;-81
2023/05/01 00:07:50;;;;;;;9.20;4.50;;;12.40;99.90;;;;;;4989246;28;20471;-81
2023/05/01 00:10:16;;;;;;;8.57;5.75;;;12.40;99.90;;;;;;4989948;28;20026;-83
2023/05/01 00:12:41;;;;;;;7.88;5.10;;;12.30;99.90;;;;;;4969792;28;20027;-81
2023/05/01 00:15:08;;;;;;;7.28;4.97;;;12.30;99.90;;;;;;4991449;28;20035;-81
2023/05/01 00:17:33;;;;;;;7.57;5.95;;;12.30;99.90;;;;;;4981986;28;20118;-81
2023/05/01 00:19:59;;;;;;;8.85;5.50;;;12.30;99.90;;;;;;4986117;28;20117;-81
2023/05/01 00:22:25;;;;;;;8.70;5.53;;;12.20;99.90;;;;;;4987789;28;20022;-82
2023/05/01 00:24:50;;;;;;;8.73;5.45;;;12.20;99.90;;;;;;4989050;28;20125;-82
2023/05/01 00:27:16;;;;;;;11.50;5.25;;;12.20;99.90;;;;;;4972825;28;20030;-81
2023/05/01 00:29:41;;;;;;;8.27;5.68;;;12.20;99.90;;;;;;4987580;28;20022;-81
2023/05/01 00:32:07;;;;;;;9.60;5.85;;;12.20;99.90;;;;;;4988398;28;20058;-82
2023/05/01 00:34:33;;;;;;;10.02;6.18;;;12.20;99.90;;;;;;4987729;28;20018;-81
2023/05/01 00:36:59;;;;;;;7.40;5.25;;;12.20;99.90;;;;;;4987829;28;20030;-81
2023/05/01 00:39:24;;;;;;;7.57;5.18;;;12.20;99.90;;;;;;4992257;28;20077;-82
2023/05/01 00:41:50;;;;;;;10.82;5.90;;;12.10;99.90;;;;;;4991064;28;20062;-81
2023/05/01 00:44:16;;;;;;;8.25;5.13;;;12.10;99.90;;;;;;4988215;28;20029;-81
2023/05/01 00:46:42;;;;;;;7.50;5.25;;;12.10;99.90;;;;;;4986494;28;20061;-81
2023/05/01 00:49:08;;;;;;;7.55;5.45;;;12.10;99.90;;;;;;5029244;23;20107;-78
2023/05/01 00:51:35;;;;;;;9.18;5.95;;;12.10;99.90;;;;;;4992363;28;20278;-78
2023/05/01 00:54:02;;;;;;;8.02;5.28;;;12.00;99.90;;;;;;4986568;28;20162;-78
2023/05/01 00:56:40;;;;;;;7.90;5.78;;;12.10;99.90;;;;;;4973344;28;20065;-77
2023/05/01 00:59:09;;;;;;;11.38;5.80;;;12.10;99.90;;;;;;4991077;28;20061;-77
2023/05/01 01:01:35;;;;;;;9.32;5.45;;;12.10;99.90;;;;;;4992481;28;20019;-78
2023/05/01 01:04:00;;;;;;;7.00;5.55;;;12.00;99.90;;;;;;4991711;28;20026;-78
2023/05/01 01:06:53;;;;;;;6.43;4.78;;;12.00;99.90;;;;;;4991207;28;20097;-77
2023/05/01 01:09:36;;;;;;;10.52;5.35;;;12.10;99.90;;;;;;4991842;28;20152;-78
2023/05/01 01:12:22;;;;;;;6.53;5.25;;;12.00;99.90;;;;;;4991566;28;20023;-74
2023/05/01 01:15:11;;;;;;;7.25;5.65;;;12.00;99.90;;;;;;4992193;28;20465;-75
2023/05/01 01:17:58;;;;;;;5.93;4.80;;;12.00;99.90;;;;;;4988371;28;20037;-75
2023/05/01 01:20:45;;;;;;;6.53;4.90;;;12.00;99.90;;;;;;4992767;28;20053;-75
2023/05/01 01:23:17;;;;;;;8.32;5.22;;;12.00;99.90;;;;;;4985891;28;20031;-75
2023/05/01 01:26:02;;;;;;;7.57;5.10;;;12.00;99.90;;;;;;4975582;28;20425;-75
2023/05/01 01:29:09;;;;;;;7.35;5.10;;;12.00;99.90;;;;;;4992448;28;20030;-74
2023/05/01 01:32:13;;;;;;;8.10;4.93;;;12.00;99.90;;;;;;4992532;28;20022;-74
2023/05/01 01:34:49;;;;;;;6.65;5.03;;;11.90;99.90;;;;;;4986852;28;20085;-74
2023/05/01 01:37:31;;;;;;;6.65;5.13;;;11.90;99.90;;;;;;4972532;28;20022;-75
2023/05/01 01:40:03;;;;;;;8.20;4.90;;;11.90;99.90;;;;;;4989398;28;20022;-74
2023/05/01 01:42:41;;;;;;;9.98;5.60;;;11.80;99.90;;;;;;4990073;28;20026;-75
2023/05/01 01:45:16;;;;;;;8.38;5.18;;;11.80;99.90;;;;;;4992979;28;20026;-75
2023/05/01 01:47:43;;;;;;;10.38;5.57;;;11.80;99.90;;;;;;4990888;28;20057;-74
2023/05/01 01:50:13;;;;;;;6.75;5.32;;;11.80;99.90;;;;;;4993871;28;20110;-75
2023/05/01 01:52:41;;;;;;;8.63;5.68;;;11.80;99.90;;;;;;4972023;28;20496;-74
2023/05/01 01:55:13;;;;;;;11.98;5.80;;;11.70;99.90;;;;;;4991491;28;20035;-75
2023/05/01 01:57:44;;;;;;;9.18;6.13;;;11.70;99.90;;;;;;4988466;28;20038;-75
2023/05/01 02:00:12;;;;;;;9.00;5.55;;;11.70;99.90;;;;;;4990438;28;20121;-74
2023/05/01 02:02:42;;;;;;;10.13;5.97;;;11.70;99.90;;;;;;4989076;28;20950;-74
2023/05/01 02:05:12;;;;;;;7.35;5.28;;;11.70;99.90;;;;;;4992834;28;20034;-75
2023/05/01 02:07:44;;;;;;;7.65;5.32;;;11.70;99.90;;;;;;4991305;28;20038;-75
2023/05/01 02:10:12;;;;;;;7.10;5.32;;;11.60;99.90;;;;;;4989785;28;20030;-75
2023/05/01 02:12:40;;;;;;;5.68;4.60;;;11.60;99.90;;;;;;4991149;28;20069;-75
2023/05/01 02:15:08;;;;;;;8.90;5.50;;;11.60;99.90;;;;;;4992476;28;21232;-75
2023/05/01 02:17:35;;;;;;;6.07;4.47;;;11.60;99.90;;;;;;4991005;28;20106;-75
2023/05/01 02:20:03;;;;;;;7.18;5.40;;;11.60;99.90;;;;;;4989792;28;20022;-75
2023/05/01 02:22:29;;;;;;;9.27;5.30;;;11.70;99.90;;;;;;4991137;28;20471;-75
2023/05/01 02:24:59;;;;;;;7.22;5.55;;;11.70;99.90;;;;;;4990446;28;20114;-75
2023/05/01 02:27:35;;;;;;;6.38;4.80;;;11.70;99.90;;;;;;4990690;28;20022;-75
2023/05/01 02:30:01;;;;;;;7.72;5.50;;;11.80;99.90;;;;;;4972498;28;20030;-74
2023/05/01 02:32:27;;;;;;;8.98;5.55;;;11.80;99.90;;;;;;4987715;28;20393;-74
2023/05/01 02:34:53;;;;;;;8.38;5.57;;;11.80;99.90;;;;;;4989698;28;20018;-74
2023/05/01 02:37:19;;;;;;;9.18;4.97;;;11.80;99.90;;;;;;4990065;28;20034;-74
2023/05/01 02:39:45;;;;;;;6.53;5.00;;;11.80;99.90;;;;;;4990632;28;20019;-75
2023/05/01 02:42:14;;;;;;;9.43;5.50;;;11.80;99.90;;;;;;4988827;28;20519;-74
2023/05/01 02:44:50;;;;;;;6.45;5.13;;;11.80;99.90;;;;;;4991157;28;20378;-74
2023/05/01 02:47:19;;;;;;;7.10;5.70;;;11.80;99.90;;;;;;4989499;28;20114;-75
2023/05/01 02:49:46;;;;;;;7.32;5.43;;;11.80;99.90;;;;;;4990402;28;20022;-75
2023/05/01 02:52:21;;;;;;;8.85;5.20;;;11.80;99.90;;;;;;4989108;28;20022;-75
2023/05/01 02:54:48;;;;;;;9.25;6.13;;;11.80;99.90;;;;;;4988634;28;20061;-74
2023/05/01 02:57:16;;;;;;;7.82;5.85;;;11.80;99.90;;;;;;4979809;28;20050;-74
2023/05/01 02:59:45;;;;;;;7.07;5.28;;;11.80;99.90;;;;;;4979393;28;20501;-74
2023/05/01 03:02:10;;;;;;;9.38;5.45;;;11.80;99.90;;;;;;4973008;28;20122;-74
2023/05/01 03:04:39;;;;;;;10.43;5.35;;;11.80;99.90;;;;;;4988694;28;20113;-74
2023/05/01 03:07:05;;;;;;;7.10;5.32;;;11.80;99.90;;;;;;4989355;28;20575;-74
2023/05/01 03:09:34;;;;;;;6.85;5.22;;;11.80;99.90;;;;;;4985885;28;20030;-74
2023/05/01 03:11:59;;;;;;;8.93;5.53;;;11.80;99.90;;;;;;4989659;28;20114;-74
2023/05/01 03:14:27;;;;;;;7.57;5.93;;;11.80;99.90;;;;;;4991219;28;20097;-74
2023/05/01 03:16:57;;;;;;;8.98;5.32;;;11.80;99.90;;;;;;4988484;28;20062;-74
2023/05/01 03:19:29;;;;;;;8.93;5.85;;;11.70;99.90;;;;;;4988024;28;20049;-74
2023/05/01 03:21:58;;;;;;;8.90;5.32;;;11.70;99.90;;;;;;4989869;28;20037;-74
2023/05/01 03:24:23;;;;;;;9.13;5.82;;;11.70;99.90;;;;;;4988458;28;20493;-74
2023/05/01 03:26:49;;;;;;;9.15;5.50;;;11.70;99.90;;;;;;4990078;28;20053;-74
2023/05/01 03:29:14;;;;;;;8.35;5.47;;;11.70;99.90;;;;;;4987785;28;20093;-74
2023/05/01 03:31:40;;;;;;;7.68;5.47;;;11.70;99.90;;;;;;4989371;28;20101;-74
2023/05/01 03:34:06;;;;;;;10.70;6.18;;;11.70;99.90;;;;;;4989207;28;20565;-74
2023/05/01 03:36:32;;;;;;;7.72;5.70;;;11.70;99.90;;;;;;4986591;28;20022;-74
2023/05/01 03:38:58;;;;;;;7.45;5.65;;;11.70;99.90;;;;;;4985537;28;20105;-74
2023/05/01 03:41:24;;;;;;;8.05;5.50;;;11.70;99.90;;;;;;4988077;28;20133;-74
2023/05/01 03:43:49;;;;;;;8.35;5.85;;;11.70;99.90;;;;;;4990494;28;20524;-74
2023/05/01 03:46:18;;;;;;;9.50;6.40;;;11.70;99.90;;;;;;4986624;28;20163;-74
2023/05/01 03:48:49;;;;;;;8.25;5.60;;;11.70;99.90;;;;;;4986513;28;20077;-74
2023/05/01 03:51:16;;;;;;;10.73;6.63;;;11.70;99.90;;;;;;4987938;28;20026;-74
2023/05/01 03:53:42;;;;;;;8.63;5.38;;;11.70;99.90;;;;;;4987302;28;20054;-74
2023/05/01 03:56:08;;;;;;;9.93;6.53;;;11.70;99.90;;;;;;4989419;28;20366;-75
2023/05/01 03:58:33;;;;;;;7.22;5.57;;;11.70;99.90;;;;;;4990290;28;20054;-75
2023/05/01 04:00:59;;;;;;;8.55;5.95;;;11.70;99.90;;;;;;4990285;28;20083;-74
2023/05/01 04:03:25;;;;;;;10.40;5.95;;;11.70;99.90;;;;;;4971619;28;20536;-74
2023/05/01 04:05:51;;;;;;;6.53;4.82;;;11.70;99.90;;;;;;4989700;28;20038;-74
2023/05/01 04:08:17;;;;;;;9.75;5.63;;;11.70;99.90;;;;;;4989901;28;20381;-74
2023/05/01 04:10:43;;;;;;;8.52;5.75;;;11.70;99.90;;;;;;4986335;28;20109;-74
2023/05/01 04:13:15;;;;;;;8.70;5.35;;;11.70;99.90;;;;;;4987849;28;20122;-74
2023/05/01 04:15:44;;;;;;;7.80;5.28;;;11.70;99.90;;;;;;4990442;28;20073;-74
2023/05/01 04:18:10;;;;;;;9.45;5.95;;;11.70;99.90;;;;;;4988838;28;20088;-74
2023/05/01 04:20:35;;;;;;;7.55;4.90;;;11.70;99.90;;;;;;4972944;28;20015;-74
2023/05/01 04:23:04;;;;;;;8.35;6.00;;;11.60;99.90;;;;;;4971494;28;20073;-74
2023/05/01 04:25:30;;;;;;;8.25;6.10;;;11.60;99.90;;;;;;4989641;28;20045;-74
2023/05/01 04:27:56;;;;;;;9.00;6.55;;;11.60;99.90;;;;;;4987377;28;20397;-74
2023/05/01 04:30:24;;;;;;;9.25;5.65;;;11.60;99.90;;;;;;4987308;28;20497;-74
2023/05/01 04:32:50;;;;;;;7.43;5.78;;;11.60;99.90;;;;;;4995067;28;20078;-73
2023/05/01 04:35:16;;;;;;;10.52;6.55;;;11.60;99.90;;;;;;4994057;28;20026;-74
2023/05/01 04:37:41;;;;;;;7.95;6.22;;;11.60;99.90;;;;;;4993705;28;20026;-74
2023/05/01 04:40:08;;;;;;;9.15;6.57;;;11.60;99.90;;;;;;4976759;28;20030;-74
2023/05/01 04:42:33;;;;;;;9.77;6.78;;;11.60;99.90;;;;;;4992994;28;20030;-73
2023/05/01 04:45:02;;;;;;;8.50;6.57;;;11.60;99.90;;;;;;4994654;28;20045;-74
2023/05/01 04:47:28;;;;;;;8.68;6.13;;;11.60;99.90;;;;;;4994243;28;20117;-74
2023/05/01 04:49:53;;;;;;;9.75;6.65;;;11.60;99.90;;;;;;4993606;28;20110;-74
2023/05/01 04:52:22;;;;;;;10.82;7.07;;;11.60;99.90;;;;;;4993284;28;20085;-74
2023/05/01 04:54:48;;;;;;;9.10;6.43;;;11.60;99.90;;;;;;4991404;28;20382;-74
2023/05/01 04:57:13;;;;;;;8.85;5.68;;;11.60;99.90;;;;;;4989076;28;20090;-74
2023/05/01 04:59:39;;;;;;;8.73;6.10;;;11.60;99.90;;;;;;4992623;28;20049;-74
2023/05/01 05:02:05;;;;;;;8.63;6.43;;;11.50;99.90;;;;;;4990767;28;20030;-75
2023/05/01 05:04:32;;;;;;;8.02;5.90;;;11.50;99.90;;;;;;4989408;28;20334;-74
2023/05/01 05:07:03;;;;;;;9.57;5.93;;;11.50;99.90;;;;;;4987541;28;20018;-75
2023/05/01 05:09:29;;;;;;;8.25;5.82;;;11.50;99.90;;;;;;4992788;28;20031;-74
2023/05/01 05:11:54;;;;;;;7.28;5.80;;;11.50;99.90;;;;;;4992221;28;20537;-75
2023/05/01 05:14:20;;;;;;;8.90;6.50;;;11.40;99.90;;;;;;4992466;28;20046;-75
2023/05/01 05:16:46;;;;;;;9.43;6.60;;;11.50;99.90;;;;;;4993997;28;20021;-74
2023/05/01 05:19:12;;;;;;;11.18;6.75;;;11.40;99.90;;;;;;4993878;28;20038;-75
2023/05/01 05:21:37;;;;;;;9.88;6.75;;;11.50;99.90;;;;;;4992769;28;20080;-74
2023/05/01 05:24:03;;;;;;;10.45;6.45;;;11.50;99.90;;;;;;4984538;28;20121;-75
2023/05/01 05:26:29;;;;;;;9.20;6.55;;;11.50;99.90;;;;;;4990050;28;20037;-74
2023/05/01 05:28:55;;;;;;;9.60;6.80;;;11.50;99.90;;;;;;4987490;28;20110;-74
2023/05/01 05:31:20;;;;;;;9.90;6.57;;;11.50;99.90;;;;;;4990478;28;20030;-75
2023/05/01 05:33:46;;;;;;;11.15;6.90;;;11.50;99.90;;;;;;4991204;28;20037;-74
2023/05/01 05:36:15;;;;;;;9.60;6.72;;;11.50;99.90;;;;;;4989936;28;20081;-74
2023/05/01 05:38:43;;;;;;;9.90;6.40;;;11.50;99.90;;;;;;4991473;28;20027;-75
2023/05/01 05:41:12;;;;;;;8.55;6.05;;;11.50;99.90;;;;;;4988944;28;20026;-74
2023/05/01 05:43:37;;;;;;;8.95;6.13;;;11.50;99.90;;;;;;4992225;28;20150;-73
2023/05/01 05:46:03;;;;;;;11.05;6.75;;;11.50;99.90;;;;;;4990023;28;20027;-74
2023/05/01 05:48:29;;;;;;;8.77;6.70;;;11.50;99.90;;;;;;4950799;28;1101370;-74
2023/05/01 05:50:55;;;;;;;9.45;6.30;;;11.50;99.90;;;;;;4993396;28;20030;-75
2023/05/01 05:53:21;;;;;;;8.07;6.38;;;11.50;99.90;;;;;;4979950;28;20026;-75
2023/05/01 05:55:47;;;;;;;9.55;6.50;;;11.50;99.90;;;;;;4990642;28;20025;-75
2023/05/01 05:58:18;;;;;;;9.57;6.70;;;11.50;99.90;;;;;;4989200;28;20042;-75
2023/05/01 06:00:47;;;;;;;8.55;6.05;;;11.40;99.90;;;;;;4993552;28;20081;-75
2023/05/01 06:03:16;;;;;;;8.88;7.20;;;11.40;99.90;;;;;;4974717;28;20030;-74
2023/05/01 06:05:42;;;;;;;9.55;6.63;;;11.40;99.90;;;;;;4993917;28;20101;-74
2023/05/01 06:08:11;;;;;;;8.80;6.78;;;11.50;99.90;;;;;;4993463;28;20097;-75
2023/05/01 06:10:43;;;;;;;8.90;6.90;;;11.40;99.90;;;;;;4994080;28;20034;-74
2023/05/01 06:13:10;;;;;;;9.98;6.82;;;11.40;99.90;;;;;;4999832;28;20073;-74
2023/05/01 06:15:39;;;;;;;9.18;6.18;;;11.40;99.90;;;;;;4976709;28;20025;-74
2023/05/01 06:18:05;;;;;;;10.13;6.75;;;11.40;99.90;;;;;;4994266;28;20034;-75
2023/05/01 06:20:31;;;;;;;11.63;7.57;;;11.40;99.90;;;;;;4991760;28;20027;-75
2023/05/01 06:22:57;;;;;;;9.57;6.93;;;11.50;99.90;;;;;;4992857;28;20037;-75
2023/05/01 06:25:23;;;;;;;11.10;7.22;;;11.40;99.90;;;;;;4991808;28;20022;-75
2023/05/01 06:27:49;;;;;;;11.55;8.13;;;11.50;99.90;;;;;;4977104;28;20378;-75
2023/05/01 06:30:15;;;;;;;10.10;6.57;;;11.50;99.90;;;;;;4992291;28;20636;-75
2023/05/01 06:32:42;;;;;;;10.15;6.95;;;11.50;99.90;;;;;;4989320;28;20184;-75
2023/05/01 06:35:08;;;;;;;10.25;6.70;;;11.50;99.90;;;;;;4989323;28;20088;-73
2023/05/01 06:37:35;;;;;;;10.70;6.32;;;11.50;99.90;;;;;;4985940;28;20029;-74
2023/05/01 06:40:00;;;;;;;9.45;6.45;;;11.50;99.90;;;;;;4989931;28;20026;-75
2023/05/01 06:42:29;;;;;;;11.23;7.78;;;11.50;99.90;;;;;;4990063;28;20105;-75
2023/05/01 06:44:55;;;;;;;11.13;7.85;;;11.50;99.90;;;;;;4993197;28;20048;-75
2023/05/01 06:47:24;;;;;;;8.75;7.10;;;11.60;99.90;;;;;;4993409;28;20540;-74
2023/05/01 06:49:49;;;;;;;10.93;6.90;;;11.60;99.90;;;;;;4993046;28;20041;-75
2023/05/01 06:52:15;;;;;;;11.85;8.30;;;11.60;99.90;;;;;;4993875;28;20022;-74
2023/05/01 06:54:41;;;;;;;11.57;7.07;;;11.70;99.90;;;;;;4993936;28;20097;-74
2023/05/01 06:57:06;;;;;;;9.77;6.70;;;11.70;99.90;;;;;;4994066;28;20377;-74
2023/05/01 06:59:32;;;;;;;10.80;7.30;;;11.80;99.90;;;;;;4993851;28;20030;-75
2023/05/01 07:02:00;;;;;;;10.73;6.80;;;11.80;99.90;;;;;;4993532;28;20163;-74
2023/05/01 07:04:31;;;;;;;13.98;7.10;;;11.80;99.90;;;;;;4993355;28;20033;-74
2023/05/01 07:06:56;;;;;;;15.52;7.90;;;11.80;99.90;;;;;;4992798;28;20143;-74
2023/05/01 07:09:22;;;;;;;11.23;7.43;;;11.90;99.90;;;;;;4992026;28;20113;-74
2023/05/01 07:11:48;;;;;;;10.02;7.28;;;11.90;99.90;;;;;;5002216;23;20085;-83
2023/05/01 07:14:14;;;;;;;9.20;7.03;;;11.90;99.90;;;;;;4985559;28;20033;-82
2023/05/01 07:16:40;;;;;;;9.10;7.03;;;11.90;99.90;;;;;;4996775;28;20026;-81
2023/05/01 07:19:07;;;;;;;7.78;6.50;;;12.00;99.90;;;;;;4996053;28;20037;-82
2023/05/01 07:21:32;;;;;;;9.52;5.97;;;12.00;99.90;;;;;;4997303;28;20097;-85
2023/05/01 07:23:58;;;;;;;17.60;6.68;;;12.00;99.90;;;;;;4979125;28;20462;-81
2023/05/01 07:26:25;;;;;;;11.10;7.13;;;12.10;99.90;;;;;;5004087;23;20035;-76
2023/05/01 07:28:51;;;;;;;8.20;6.53;;;12.10;99.90;;;;;;5001566;28;20046;-77
2023/05/01 07:31:17;;;;;;;10.30;6.68;;;12.20;99.90;;;;;;4994257;28;20036;-76
2023/05/01 07:33:43;;;;;;;9.20;6.20;;;12.20;99.90;;;;;;4979727;28;20052;-78
2023/05/01 07:36:08;;;;;;;8.77;6.05;;;12.20;99.90;;;;;;4977813;28;20027;-77
2023/05/01 07:38:34;;;;;;;9.10;6.10;;;12.20;99.90;;;;;;4997615;28;20026;-78
2023/05/01 07:41:09;;;;;;;9.00;6.18;;;12.20;99.90;;;;;;4994858;28;20026;-76
2023/05/01 07:43:34;;;;;;;9.45;6.43;;;12.20;99.90;;;;;;4996111;28;20496;-77
2023/05/01 07:46:00;;;;;;;9.40;6.25;;;12.30;99.90;;;;;;4994989;28;20050;-77
2023/05/01 07:48:29;;;;;;;7.22;5.90;;;12.20;99.90;;;;;;4994014;28;20027;-77
2023/05/01 07:51:01;;;;;;;9.38;6.82;;;12.30;99.90;;;;;;4994482;28;20026;-77
2023/05/01 07:53:27;;;;;;;8.75;6.70;;;12.20;99.90;;;;;;4996920;28;20054;-77
2023/05/01 07:56:08;;;;;;;9.10;5.85;;;12.20;99.90;;;;;;4996300;28;20030;-77
2023/05/01 07:58:35;;;;;;;7.85;5.82;;;12.30;99.90;;;;;;4996284;28;20022;-77
2023/05/01 08:01:02;;;;;;;12.80;6.88;;;12.30;99.90;;;;;;5006641;28;20033;-75
2023/05/01 08:03:28;;;;;;;7.80;6.47;;;12.20;99.90;;;;;;4992541;28;20031;-78
2023/05/01 08:05:54;;;;;;;7.15;5.93;;;12.30;99.90;;;;;;4975036;28;20129;-76
2023/05/01 08:08:20;;;;;;;8.02;6.10;;;12.20;99.90;;;;;;4988891;28;20054;-76
2023/05/01 08:10:47;;;;;;;10.45;6.10;;;12.30;99.90;;;;;;4994139;28;20058;-77
2023/05/01 08:13:12;;;;;;;8.27;5.60;;;12.30;99.90;;;;;;4980348;28;20062;-77
2023/05/01 08:15:41;;;;;;;9.02;6.00;;;12.30;99.90;;;;;;4999202;28;20031;-77
2023/05/01 08:18:07;;;;;;;8.48;5.53;;;12.40;99.90;;;;;;4991409;28;20479;-77
2023/05/01 08:20:35;;;;;;;9.23;5.60;;;12.40;99.90;;;;;;4974666;28;20034;-76
2023/05/01 08:23:01;;;;;;;7.57;6.38;;;12.50;99.90;;;;;;4979985;28;20121;-76
2023/05/01 08:25:28;;;;;;;9.57;6.10;;;12.50;99.90;;;;;;4995586;28;20053;-77
2023/05/01 08:27:57;;;;;;;7.03;6.15;;;12.60;99.90;;;;;;4999000;28;20030;-78
2023/05/01 08:30:30;;;;;;;7.85;6.43;;;12.60;99.90;;;;;;4983037;28;20034;-79
2023/05/01 08:33:02;;;;;;;8.52;6.10;;;12.70;99.90;;;;;;4997524;28;20030;-78
2023/05/01 08:35:28;;;;;;;11.43;5.90;;;12.80;99.90;;;;;;4993251;28;20027;-77
2023/05/01 08:37:54;;;;;;;10.02;6.70;;;12.90;99.90;;;;;;5000435;28;20117;-77
2023/05/01 08:40:21;;;;;;;7.30;5.90;;;12.90;99.90;;;;;;4978401;28;20034;-79
2023/05/01 08:42:48;;;;;;;8.05;6.20;;;13.00;99.90;;;;;;4995856;28;20018;-79
2023/05/01 08:45:24;;;;;;;10.35;6.22;;;13.20;99.90;;;;;;4983500;28;20265;-79
2023/05/01 08:47:57;;;;;;;9.10;7.00;;;13.30;99.90;;;;;;5001250;28;20046;-78
2023/05/01 08:50:27;;;;;;;9.07;6.65;;;13.40;99.90;;;;;;5005097;28;20022;-78
2023/05/01 08:52:54;;;;;;;8.88;6.97;;;13.50;99.90;;;;;;5001636;28;20030;-78
2023/05/01 08:55:26;;;;;;;7.57;6.15;;;13.60;99.90;;;;;;5002993;28;20045;-80
2023/05/01 08:57:56;;;;;;;10.77;6.38;;;13.80;99.90;;;;;;5001450;28;20086;-79
2023/05/01 09:00:26;;;;;;;9.57;6.40;;;13.80;99.90;;;;;;5003969;28;20045;-80
2023/05/01 09:02:59;;;;;;;8.02;6.22;;;14.00;99.90;;;;;;4999753;28;20049;-79
2023/05/01 09:05:25;;;;;;;8.27;6.28;;;14.00;99.90;;;;;;5004090;28;20031;-79
2023/05/01 09:08:04;;;;;;;10.77;6.05;;;14.20;99.90;;;;;;5001043;28;20721;-80
2023/05/01 09:10:31;;;;;;;6.57;5.88;;;14.30;99.90;;;;;;5001386;28;20029;-79
2023/05/01 09:13:05;;;;;;;9.57;5.75;;;14.30;99.90;;;;;;4997941;28;20045;-80
2023/05/01 09:15:34;;;;;;;7.90;5.97;;;14.40;99.90;;;;;;4993556;28;20027;-78
2023/05/01 09:18:00;;;;;;;8.75;6.03;;;14.40;99.90;;;;;;4999418;28;20610;-79
2023/05/01 09:20:27;;;;;;;11.30;6.40;;;14.50;99.90;;;;;;5001021;28;20049;-78
2023/05/01 09:23:02;;;;;;;8.20;6.00;;;14.60;99.90;;;;;;4984657;28;20397;-77
2023/05/01 09:25:30;;;;;;;9.73;6.15;;;14.70;99.90;;;;;;4995865;28;20026;-78
2023/05/01 09:28:05;;;;;;;7.45;6.00;;;14.80;99.90;;;;;;5005782;28;20034;-78
2023/05/01 09:30:33;;;;;;;8.45;5.75;;;14.90;99.90;;;;;;5009165;28;20023;-78
2023/05/01 09:33:12;;;;;;;10.10;6.82;;;15.00;99.90;;;;;;5006561;28;20029;-79
2023/05/01 09:35:50;;;;;;;7.00;5.45;;;15.20;99.90;;;;;;4984195;28;20049;-77
2023/05/01 09:38:20;;;;;;;7.25;5.65;;;15.30;99.90;;;;;;4995108;28;20117;-78
2023/05/01 09:40:46;;;;;;;5.78;5.10;;;15.40;99.90;;;;;;4994021;28;20023;-77
2023/05/01 09:43:28;;;;;;;5.93;4.60;;;15.50;99.90;;;;;;4999550;28;20113;-80
2023/05/01 09:46:14;;;;;;;6.90;5.07;;;15.60;99.90;;;;;;4999303;28;20034;-79
2023/05/01 09:48:39;;;;;;;5.05;4.53;;;15.70;99.90;;;;;;4999145;28;20026;-79
2023/05/01 09:51:25;;;;;;;7.38;4.40;;;15.80;99.90;;;;;;4996832;28;20029;-79
2023/05/01 09:53:52;;;;;;;7.03;5.05;;;15.90;99.90;;;;;;5000003;28;20030;-79
2023/05/01 09:56:28;;;;;;;5.60;4.93;;;15.90;99.90;;;;;;4995375;28;20105;-79
2023/05/01 09:59:13;;;;;;;7.03;4.53;;;16.10;99.90;;;;;;4981724;28;20592;-82
2023/05/01 10:01:48;;;;;;;6.75;4.72;;;16.20;99.90;;;;;;4998214;28;20384;-80
2023/05/01 10:04:14;;;;;;;6.82;4.90;;;16.30;99.90;;;;;;4992954;28;20018;-79
2023/05/01 10:06:40;;;;;;;6.40;4.50;;;16.40;99.90;;;;;;4982610;28;20032;-80
2023/05/01 10:09:24;;;;;;;5.40;4.35;;;16.50;99.90;;;;;;4996445;28;20105;-80
2023/05/01 10:11:57;;;;;;;5.32;4.30;;;16.60;99.90;;;;;;4993742;28;20500;-80
2023/05/01 10:14:25;;;;;;;5.90;4.10;;;16.60;99.90;;;;;;4994825;28;20149;-79
2023/05/01 10:16:57;;;;;;;6.60;4.78;;;16.60;99.90;;;;;;4997243;28;20194;-80
2023/05/01 10:19:22;;;;;;;7.03;4.57;;;16.70;99.90;;;;;;4994054;28;20027;-80
2023/05/01 10:21:48;;;;;;;5.13;4.40;;;16.70;99.90;;;;;;4997034;28;20092;-80
2023/05/01 10:24:17;;;;;;;5.55;4.30;;;16.80;99.90;;;;;;4997060;28;20019;-78
2023/05/01 10:26:43;;;;;;;4.70;4.07;;;16.80;99.90;;;;;;4996039;28;20034;-80
2023/05/01 10:29:12;;;;;;;6.80;4.47;;;16.90;99.90;;;;;;4998484;28;20022;-79
2023/05/01 10:31:40;;;;;;;5.18;4.32;;;16.90;99.90;;;;;;4999235;28;20033;-79
2023/05/01 10:34:18;;;;;;;5.82;4.30;;;16.90;99.90;;;;;;4998284;28;20046;-78
2023/05/01 10:36:53;;;;;;;6.50;4.20;;;16.90;99.90;;;;;;4979197;28;20033;-80
2023/05/01 10:39:35;;;;;;;5.20;4.05;;;16.90;99.90;;;;;;4996394;28;20022;-80
2023/05/01 10:42:04;;;;;;;4.80;3.80;;;16.90;99.90;;;;;;4999009;28;20067;-79
2023/05/01 10:44:31;;;;;;;6.97;4.00;;;16.90;99.90;;;;;;4999773;28;20493;-80
2023/05/01 10:47:33;;;;;;;4.80;3.88;;;16.90;99.90;;;;;;4983658;28;20030;-78
2023/05/01 10:50:15;;;;;;;5.20;3.58;;;16.90;99.90;;;;;;4998603;28;20057;-79
2023/05/01 10:53:11;;;;;;;4.95;4.15;;;16.90;99.90;;;;;;5000225;28;20022;-80
2023/05/01 10:55:48;;;;;;;7.20;4.70;;;16.90;99.90;;;;;;4995470;28;20461;-81
2023/05/01 10:58:35;;;;;;;4.65;3.55;;;16.90;99.90;;;;;;4997418;28;20053;-80
2023/05/01 11:01:32;;;;;;;5.45;3.85;;;16.80;99.90;;;;;;4995766;28;20030;-80
2023/05/01 11:04:17;;;;;;;4.18;3.33;;;16.80;99.90;;;;;;4995650;28;20035;-80
2023/05/01 11:07:07;;;;;;;6.15;3.70;;;16.80;99.90;;;;;;4992816;28;20400;-80
2023/05/01 11:09:44;;;;;;;9.20;5.65;;;16.80;99.90;;;;;;4996493;28;20038;-80
2023/05/01 11:12:30;;;;;;;5.35;4.45;;;16.80;99.90;;;;;;4996628;28;20037;-80
2023/05/01 11:14:56;;;;;;;5.63;4.03;;;16.70;99.90;;;;;;4996879;28;20136;-79
2023/05/01 11:17:40;;;;;;;5.50;4.00;;;16.60;99.90;;;;;;4995219;28;20042;-78
2023/05/01 11:20:33;;;;;;;7.88;5.10;;;16.60;99.90;;;;;;4995281;28;20038;-78
2023/05/01 11:22:59;;;;;;;5.80;4.90;;;16.60;99.90;;;;;;4999744;28;20114;-81
2023/05/01 11:25:47;;;;;;;4.40;3.75;;;16.50;99.90;;;;;;4997043;28;20034;-81
2023/05/01 11:28:18;;;;;;;4.40;4.00;;;16.40;99.90;;;;;;4996938;28;20121;-79
2023/05/01 11:30:45;;;;;;;5.43;4.70;;;16.30;99.90;;;;;;4979514;28;20026;-79
2023/05/01 11:33:11;;;;;;;5.07;3.88;;;16.30;99.90;;;;;;4997472;28;20026;-78
2023/05/01 11:35:37;;;;;;;6.03;4.20;;;16.20;99.90;;;;;;4995132;28;20038;-80
2023/05/01 11:38:17;;;;;;;4.35;3.88;;;16.20;99.90;;;;;;4996923;28;20125;-77
2023/05/01 11:40:54;;;;;;;5.00;4.10;;;16.20;99.90;;;;;;4996376;28;20023;-80
2023/05/01 11:43:23;;;;;;;6.03;4.03;;;16.20;99.90;;;;;;4995474;28;20037;-79
2023/05/01 11:45:53;;;;;;;5.15;3.83;;;16.30;99.90;;;;;;4994517;28;20031;-80
2023/05/01 11:48:49;;;;;;;5.07;3.63;;;16.30;99.90;;;;;;4996250;28;20026;-80
2023/05/01 11:51:18;;;;;;;4.57;3.67;;;16.40;99.90;;;;;;4979424;28;20026;-80
2023/05/01 11:54:09;;;;;;;4.53;3.45;;;16.40;99.90;;;;;;4998737;28;20054;-80
2023/05/01 11:56:37;;;;;;;4.65;3.70;;;16.50;99.90;;;;;;4994582;28;20038;-79
2023/05/01 11:59:16;;;;;;;6.45;3.30;;;16.60;99.90;;;;;;4996569;28;20090;-77
2023/05/01 12:01:49;;;;;;;5.35;2.92;;;16.60;99.90;;;;;;4977436;28;20073;-79
2023/05/01 12:04:28;;;;;;;5.97;3.43;;;16.60;99.90;;;;;;4994168;28;20033;-78
2023/05/01 12:06:56;;;;;;;3.72;3.33;;;16.60;99.90;;;;;;4997982;28;20034;-79
2023/05/01 12:09:28;;;;;;;6.05;3.85;;;16.60;99.90;;;;;;4995485;28;20019;-80
2023/05/01 12:11:54;;;;;;;3.53;3.10;;;16.70;99.90;;;;;;4995515;28;20337;-80
2023/05/01 12:14:20;;;;;;;4.05;3.03;;;16.70;99.90;;;;;;4996887;28;20029;-81
2023/05/01 12:16:47;;;;;;;3.75;3.15;;;16.80;99.90;;;;;;4980360;28;20157;-80
2023/05/01 12:19:14;;;;;;;3.67;2.80;;;16.80;99.90;;;;;;4998127;28;20057;-79
2023/05/01 12:22:11;;;;;;;5.53;3.08;;;16.90;99.90;;;;;;4997232;28;20296;-80
2023/05/01 12:24:59;;;;;;;3.70;3.10;;;16.90;99.90;;;;;;4994194;28;20086;-80
2023/05/01 12:27:25;;;;;;;5.80;3.50;;;17.00;99.90;;;;;;4995579;28;20042;-80
2023/05/01 12:29:54;;;;;;;3.72;3.25;;;17.10;99.90;;;;;;4994807;28;20035;-80
2023/05/01 12:32:37;;;;;;;5.75;4.35;;;17.20;99.90;;;;;;4997230;28;20045;-80
2023/05/01 12:35:18;;;;;;;6.75;3.88;;;17.30;99.90;;;;;;4993118;28;20022;-78
2023/05/01 12:37:47;;;;;;;3.95;3.17;;;17.30;99.90;;;;;;4991533;28;20066;-80
2023/05/01 12:40:13;;;;;;;5.57;3.47;;;17.30;99.90;;;;;;4989062;28;20315;-80
2023/05/01 12:42:54;;;;;;;6.60;3.40;;;17.40;99.90;;;;;;4978070;28;20053;-79
2023/05/01 12:45:20;;;;;;;3.75;3.00;;;17.50;99.90;;;;;;4994182;28;20015;-78
2023/05/01 12:47:46;;;;;;;4.95;3.63;;;17.60;99.90;;;;;;4993708;28;20049;-80
2023/05/01 12:50:12;;;;;;;5.75;4.95;;;17.60;99.90;;;;;;4997901;28;20038;-79
2023/05/01 12:52:41;;;;;;;8.57;3.30;;;17.70;99.90;;;;;;4994642;28;20023;-78
2023/05/01 12:55:08;;;;;;;5.10;2.92;;;17.80;99.90;;;;;;4995320;28;20041;-80
2023/05/01 12:57:34;;;;;;;5.20;2.83;;;17.80;99.90;;;;;;5000157;28;20026;-79
2023/05/01 13:00:03;;;;;;;5.50;3.65;;;17.90;99.90;;;;;;4983019;28;20018;-78